METAR Data
IDs: Format: Raw Decoded Include TAF

Data at: 0909 UTC 26 Jan 2020

KUES 260855Z AUTO 27010KT 10SM OVC007 00/M01 A2987 RMK AO2
KUES 260835Z AUTO 28009KT 10SM OVC007 00/M01 A2987 RMK AO2
KUES 260815Z AUTO 28010KT 10SM OVC007 00/M01 A2987 RMK AO2
KUES 260755Z AUTO 27010KT 10SM OVC007 00/M01 A2987 RMK AO2
KUES 260735Z AUTO 27008KT 7SM OVC007 00/M01 A2986 RMK AO2
KUES 260715Z AUTO 27008KT 10SM OVC007 00/M01 A2986 RMK AO2
KUES 260655Z AUTO 27007KT 10SM OVC007 00/M01 A2986 RMK AO2
KUES 260635Z AUTO 28007KT 10SM OVC007 00/M01 A2986 RMK AO2
KUES 260615Z AUTO 28010KT 10SM OVC007 00/M01 A2986 RMK AO2
KUES 260555Z AUTO 28009KT 10SM OVC005 00/M01 A2986 RMK AO2
KUES 260535Z AUTO 28009KT 10SM OVC005 00/00 A2986 RMK AO2
KUES 260515Z AUTO 28008KT 10SM OVC005 00/M01 A2986 RMK AO2
KUES 260455Z AUTO 27008KT 10SM OVC005 00/00 A2985 RMK AO2
KUES 260435Z AUTO 27008KT 10SM OVC005 00/00 A2985 RMK AO2
KUES 260415Z AUTO 27007KT 10SM OVC005 00/00 A2985 RMK AO2
KUES 260355Z AUTO 28008KT 10SM OVC007 00/00 A2985 RMK AO2
KUES 260335Z AUTO 28007KT 10SM OVC007 00/00 A2984 RMK AO2
KUES 260315Z AUTO 28007KT 10SM OVC007 00/M01 A2985 RMK AO2
KUES 260245Z 28005KT 10SM OVC007 00/M01 A2984
KUES 260145Z 28008KT 10SM OVC009 00/M01 A2984
KUES 260045Z 28006KT 10SM OVC009 00/M01 A2984
KUES 252345Z 29005KT 10SM OVC013 00/M02 A2983
KUES 252245Z 28006KT 10SM OVC011 00/M02 A2981
KUES 252145Z 29005KT 10SM OVC013 00/M02 A2980
KUES 252045Z 30009KT 10SM OVC009 00/M02 A2979
KUES 251945Z 28009KT 10SM BKN009 OVC017 00/M01 A2978
KUES 251845Z COR 29007KT 10SM OVC009 00/M01 A2978
KUES 251745Z 29005KT 1 3/4SM -SN OVC007 M01/M01 A2979
KUES 251645Z 00000KT 1SM -SN OVC005 M01/M01 A2980
KUES 251545Z 00000KT 1SM -SN OVC005 M01/M01 A2979
KUES 251445Z 00000KT 1SM -SN OVC005 M01/M01 A2978
KUES 251345Z 00000KT 1SM -SN OVC005 M01/M01 A2977
KUES 251245Z 00000KT 1SM -SN OVC005 M01/M01 A2976
KUES 251145Z 00000KT 1SM -SN OVC003 M01/M01 A2975
KUES 251135Z AUTO 00000KT 5SM BR OVC003 00/M01 A2975 RMK AO2
KUES 251115Z AUTO 00000KT 7SM OVC003 00/M01 A2975 RMK AO2
KUES 251055Z AUTO 00000KT 5SM BR OVC005 00/M01 A2974 RMK AO2
KUES 251035Z AUTO 00000KT 5SM BR OVC005 00/M01 A2974 RMK AO2
KUES 251015Z AUTO 00000KT 4SM -SN OVC005 M01/M01 A2975 RMK AO2
KUES 250955Z AUTO 00000KT 3SM -SN OVC005 00/00 A2975 RMK AO2
KUES 250935Z AUTO 00000KT 4SM BR OVC005 00/00 A2975 RMK AO2
KUES 250915Z AUTO 00000KT 3SM BR OVC005 00/00 A2975 RMK AO2
KUES 250855Z AUTO 00000KT 3SM -SN OVC005 00/00 A2975 RMK AO2
KUES 250835Z AUTO 00000KT 3SM -SN OVC005 00/00 A2975 RMK AO2
KUES 250815Z AUTO 00000KT 3SM BR BKN005 OVC009 00/00 A2976 RMK AO2
KUES 250755Z AUTO 00000KT 3SM BR OVC007 00/00 A2976 RMK AO2
KUES 250735Z AUTO 00000KT 3SM BR OVC007 00/00 A2975 RMK AO2
KUES 250715Z AUTO 00000KT 2 1/2SM -SN OVC007 00/M01 A2975 RMK AO2
KUES 250655Z AUTO 00000KT 2 1/2SM -SN OVC007 M01/M01 A2975 RMK AO2
KUES 250635Z AUTO 00000KT 2SM UP SCT003 BKN007 OVC024 M01/M01 A2975 RMK AO2
KUES 250615Z AUTO 00000KT 2 1/2SM UP SCT004 SCT008 OVC029 00/M01 A2976 RMK AO2
KUES 250555Z AUTO 00000KT 1 3/4SM UP OVC004 00/M01 A2976 RMK AO2
KUES 250535Z AUTO 00000KT 1 3/4SM -SN OVC004 00/M01 A2976 RMK AO2
KUES 250515Z AUTO 00000KT 2SM -SN OVC004 00/M01 A2976 RMK AO2
KUES 250455Z AUTO 00000KT 2SM UP OVC004 00/M01 A2977 RMK AO2
KUES 250435Z AUTO 00000KT 2SM UP OVC004 00/M01 A2977 RMK AO2
KUES 250415Z AUTO 00000KT 2 1/2SM RA OVC004 00/M01 A2977 RMK AO2
KUES 250355Z AUTO 00000KT 2SM RA OVC004 00/M01 A2978 RMK AO2
KUES 250335Z AUTO 00000KT 1 1/2SM -RA OVC004 00/00 A2978 RMK AO2
KUES 250315Z AUTO 00000KT 1 1/2SM UP OVC004 00/00 A2979 RMK AO2
KUES 250245Z 00000KT 1SM -SN OVC004 M01/M01 A2980
KUES 250145Z 00000KT 1SM -SN OVC004 M01/M01 A2980
KUES 250045Z 00000KT 1SM -SN OVC002 M01/M01 A2981
KUES 242345Z 00000KT 1SM -SN OVC002 M01/M01 A2981
KUES 242245Z 05005KT 1SM RA OVC002 00/00 A2981
KUES 242145Z 04005KT 1/4SM -RAFG OVC002 01/01 A2981